Bedford, WY

4:04 PM MDT on October 21, 2014 (GMT -0600)
LCWY Branch Office | Change Station
CLOSE
Current Station
Personal Weather Station
Location: Afton, WY
Elevation: 6270 ft
Nearby Weather Stations

Elev 6270 ft 42.72 °N, 110.93 °W | Updated 9 minutes ago

Partly Cloudy
Partly Cloudy
48.8 °F
Feels Like 47 °F
N
4.0
Wind Variable Wind from NNE
Gusts 8.0 mph

Today
High -- | Low -- °F
--% Chance of Precip.
Yesterday
High -- | Low -- °F
Precip. -- in
7:44 AM 6:31 PM
Waning Crescent, 4% visible
Pressure 30.05 in
Visibility 10.0 miles
Clouds Scattered Clouds 3600 ft
Scattered Clouds 4300 ft
Windchill 47 °F
Dew Point 34 °F
Humidity 57%
Rainfall 0.05 in
Snow Depth 0 in , 0 in
UV 2 out of 12
Pollen 3.10 out of 12
Air Quality Not available.
Flu Activity Sporadic
METAR KAFO 212155Z AUTO 00000KT 10SM SCT036 SCT043 08/00 A3005 RMK AO2

More Conditions Fewer Conditions

Pressure 30.05 in
Visibility 10.0 miles
Clouds Scattered Clouds 3600 ft
Scattered Clouds 4300 ft
Windchill 47 °F
Dew Point 34 °F
Humidity 57%
Rainfall 0.05 in
Snow Depth 0 in , 0 in
UV 2 out of 12
Pollen 3.10 out of 12
Air Quality Not available.
Flu Activity Sporadic
METAR KAFO 212155Z AUTO 00000KT 10SM SCT036 SCT043 08/00 A3005 RMK AO2

More Conditions Fewer Conditions

10-Day Weather Forecast

Almanac

Astronomy

Oct. 21, 2014 Rise Set
Actual Time 7:44 AM MDT 6:31 PM MDT
Civil Twilight 7:15 AM MDT 7:00 PM MDT
Nautical Twilight 6:42 AM MDT 7:33 PM MDT
Astronomical Twilight 6:09 AM MDT 8:06 PM MDT
Moon 5:28 AM MDT 5:29 PM MDT
Length of Visible Light 11h 44m
Length of Day
10h 47m
Tomorrow will be 2m 44s shorter.
Waning Crescent, 4% of the Moon is Illuminated
Today
Waning Crescent
Oct 23
New
Oct 30
First Quarter
Nov 6
Full
Nov 14
Last Quarter

Today's Extremes

State Highs State Lows

Community

WunderPhotos

Upload Photos

1,763,793 photos uploaded!

Nearby

Snow Depth

Station Depth Elevation
Willow Creek 0 in 8450 ft
Blind Bull Summit 0 in 8900 ft
Salt River Summit 0 in 7600 ft
Granite Creek 0 in 6770 ft
Phillips Bench 0 in 8200 ft

Earthquake Activity

City Distance Mag. Time & Date
No recent earthquake activity has been reported nearby.
Minimum magnitude displayed is 2.5.

Coastal Water Temperatures

Place Temperature
No Stations Reporting

Nearby Weather Stations